sensor_id;sensor_type;location;lat;lon;timestamp;P1;durP1;ratioP1;P2;durP2;ratioP2
72198;SDS011;60103;51.014;16.992;2023-07-02T00:01:27;14.20;;;6.40;;
72198;SDS011;60103;51.014;16.992;2023-07-02T00:03:56;13.40;;;6.40;;
72198;SDS011;60103;51.014;16.992;2023-07-02T00:06:24;13.30;;;6.50;;
72198;SDS011;60103;51.014;16.992;2023-07-02T00:08:53;16.70;;;6.60;;
72198;SDS011;60103;51.014;16.992;2023-07-02T00:11:22;12.10;;;6.30;;
72198;SDS011;60103;51.014;16.992;2023-07-02T00:13:51;13.50;;;6.50;;
72198;SDS011;60103;51.014;16.992;2023-07-02T00:16:20;12.70;;;6.10;;
72198;SDS011;60103;51.014;16.992;2023-07-02T00:18:49;14.50;;;5.80;;
72198;SDS011;60103;51.014;16.992;2023-07-02T00:21:21;12.60;;;5.50;;
72198;SDS011;60103;51.014;16.992;2023-07-02T00:23:50;10.30;;;4.80;;
72198;SDS011;60103;51.014;16.992;2023-07-02T00:26:19;10.90;;;4.60;;
72198;SDS011;60103;51.014;16.992;2023-07-02T00:28:48;10.70;;;4.50;;
72198;SDS011;60103;51.014;16.992;2023-07-02T00:31:17;11.00;;;5.20;;
72198;SDS011;60103;51.014;16.992;2023-07-02T00:33:46;10.60;;;4.30;;
72198;SDS011;60103;51.014;16.992;2023-07-02T00:36:15;11.20;;;4.60;;
72198;SDS011;60103;51.014;16.992;2023-07-02T00:38:45;11.10;;;4.30;;
72198;SDS011;60103;51.014;16.992;2023-07-02T00:41:16;10.00;;;4.00;;
72198;SDS011;60103;51.014;16.992;2023-07-02T00:43:45;10.90;;;4.10;;
72198;SDS011;60103;51.014;16.992;2023-07-02T00:46:15;8.90;;;3.60;;
72198;SDS011;60103;51.014;16.992;2023-07-02T00:48:51;10.90;;;3.80;;
72198;SDS011;60103;51.014;16.992;2023-07-02T00:51:23;8.60;;;3.50;;
72198;SDS011;60103;51.014;16.992;2023-07-02T00:53:53;9.90;;;3.20;;
72198;SDS011;60103;51.014;16.992;2023-07-02T00:56:24;9.70;;;3.30;;
72198;SDS011;60103;51.014;16.992;2023-07-02T00:58:54;8.10;;;3.20;;
72198;SDS011;60103;51.014;16.992;2023-07-02T01:01:27;8.20;;;3.40;;
72198;SDS011;60103;51.014;16.992;2023-07-02T01:06:30;6.90;;;2.50;;
72198;SDS011;60103;51.014;16.992;2023-07-02T01:09:01;7.40;;;2.80;;
72198;SDS011;60103;51.014;16.992;2023-07-02T01:11:36;8.50;;;3.10;;
72198;SDS011;60103;51.014;16.992;2023-07-02T01:17:05;8.00;;;2.70;;
72198;SDS011;60103;51.014;16.992;2023-07-02T01:19:45;8.00;;;2.90;;
72198;SDS011;60103;51.014;16.992;2023-07-02T01:22:23;7.50;;;2.10;;
72198;SDS011;60103;51.014;16.992;2023-07-02T01:24:53;6.70;;;2.30;;
72198;SDS011;60103;51.014;16.992;2023-07-02T01:27:23;9.10;;;2.20;;
72198;SDS011;60103;51.014;16.992;2023-07-02T01:29:52;7.10;;;2.10;;
72198;SDS011;60103;51.014;16.992;2023-07-02T01:32:22;8.50;;;2.00;;
72198;SDS011;60103;51.014;16.992;2023-07-02T01:34:51;6.20;;;1.90;;
72198;SDS011;60103;51.014;16.992;2023-07-02T01:37:22;6.00;;;1.90;;
72198;SDS011;60103;51.014;16.992;2023-07-02T01:39:51;6.20;;;1.70;;
72198;SDS011;60103;51.014;16.992;2023-07-02T01:42:20;6.70;;;1.90;;
72198;SDS011;60103;51.014;16.992;2023-07-02T01:44:49;5.50;;;1.70;;
72198;SDS011;60103;51.014;16.992;2023-07-02T01:47:19;8.40;;;1.90;;
72198;SDS011;60103;51.014;16.992;2023-07-02T01:49:50;6.60;;;1.80;;
72198;SDS011;60103;51.014;16.992;2023-07-02T01:52:20;5.50;;;1.50;;
72198;SDS011;60103;51.014;16.992;2023-07-02T01:54:49;6.00;;;1.70;;
72198;SDS011;60103;51.014;16.992;2023-07-02T01:57:19;6.70;;;1.70;;
72198;SDS011;60103;51.014;16.992;2023-07-02T01:59:48;6.00;;;1.50;;
72198;SDS011;60103;51.014;16.992;2023-07-02T02:02:18;5.20;;;1.60;;
72198;SDS011;60103;51.014;16.992;2023-07-02T02:04:48;6.40;;;1.80;;
72198;SDS011;60103;51.014;16.992;2023-07-02T02:07:18;6.70;;;1.90;;
72198;SDS011;60103;51.014;16.992;2023-07-02T02:09:47;5.40;;;1.60;;
72198;SDS011;60103;51.014;16.992;2023-07-02T02:12:16;5.80;;;1.40;;
72198;SDS011;60103;51.014;16.992;2023-07-02T02:14:44;6.10;;;1.80;;
72198;SDS011;60103;51.014;16.992;2023-07-02T02:17:13;6.20;;;1.70;;
72198;SDS011;60103;51.014;16.992;2023-07-02T02:19:42;6.60;;;2.00;;
72198;SDS011;60103;51.014;16.992;2023-07-02T02:22:11;7.70;;;1.90;;
72198;SDS011;60103;51.014;16.992;2023-07-02T02:24:40;6.20;;;1.70;;
72198;SDS011;60103;51.014;16.992;2023-07-02T02:27:09;6.80;;;1.70;;
72198;SDS011;60103;51.014;16.992;2023-07-02T02:29:38;6.30;;;1.90;;
72198;SDS011;60103;51.014;16.992;2023-07-02T02:32:08;8.10;;;1.70;;
72198;SDS011;60103;51.014;16.992;2023-07-02T02:34:37;5.80;;;1.60;;
72198;SDS011;60103;51.014;16.992;2023-07-02T02:37:06;5.20;;;1.40;;
72198;SDS011;60103;51.014;16.992;2023-07-02T02:39:36;5.30;;;1.70;;
72198;SDS011;60103;51.014;16.992;2023-07-02T02:42:07;6.10;;;1.80;;
72198;SDS011;60103;51.014;16.992;2023-07-02T02:44:36;6.00;;;1.50;;
72198;SDS011;60103;51.014;16.992;2023-07-02T02:47:05;5.60;;;1.60;;
72198;SDS011;60103;51.014;16.992;2023-07-02T02:49:36;5.40;;;1.20;;
72198;SDS011;60103;51.014;16.992;2023-07-02T02:52:07;4.70;;;1.50;;
72198;SDS011;60103;51.014;16.992;2023-07-02T02:54:35;6.60;;;1.60;;
72198;SDS011;60103;51.014;16.992;2023-07-02T02:57:05;5.20;;;1.30;;
72198;SDS011;60103;51.014;16.992;2023-07-02T02:59:34;5.80;;;1.30;;
72198;SDS011;60103;51.014;16.992;2023-07-02T03:02:10;4.70;;;1.30;;
72198;SDS011;60103;51.014;16.992;2023-07-02T03:04:38;4.30;;;1.20;;
72198;SDS011;60103;51.014;16.992;2023-07-02T03:07:09;5.20;;;1.40;;
72198;SDS011;60103;51.014;16.992;2023-07-02T03:09:38;5.30;;;1.00;;
72198;SDS011;60103;51.014;16.992;2023-07-02T03:12:07;4.80;;;1.10;;
72198;SDS011;60103;51.014;16.992;2023-07-02T03:14:36;4.60;;;1.20;;
72198;SDS011;60103;51.014;16.992;2023-07-02T03:17:05;4.60;;;1.10;;
72198;SDS011;60103;51.014;16.992;2023-07-02T03:19:34;4.80;;;1.30;;
72198;SDS011;60103;51.014;16.992;2023-07-02T03:22:03;4.50;;;1.30;;
72198;SDS011;60103;51.014;16.992;2023-07-02T03:24:33;5.60;;;1.40;;
72198;SDS011;60103;51.014;16.992;2023-07-02T03:27:02;5.30;;;1.40;;
72198;SDS011;60103;51.014;16.992;2023-07-02T03:29:31;5.40;;;1.60;;
72198;SDS011;60103;51.014;16.992;2023-07-02T03:32:03;4.80;;;1.10;;
72198;SDS011;60103;51.014;16.992;2023-07-02T03:34:33;6.30;;;1.40;;
72198;SDS011;60103;51.014;16.992;2023-07-02T03:37:02;3.80;;;1.20;;
72198;SDS011;60103;51.014;16.992;2023-07-02T03:39:31;4.50;;;1.30;;
72198;SDS011;60103;51.014;16.992;2023-07-02T03:42:00;4.10;;;1.30;;
72198;SDS011;60103;51.014;16.992;2023-07-02T03:44:29;4.60;;;1.30;;
72198;SDS011;60103;51.014;16.992;2023-07-02T03:46:58;4.90;;;1.50;;
72198;SDS011;60103;51.014;16.992;2023-07-02T03:49:27;6.00;;;1.40;;
72198;SDS011;60103;51.014;16.992;2023-07-02T03:51:57;5.30;;;1.40;;
72198;SDS011;60103;51.014;16.992;2023-07-02T03:54:27;6.00;;;1.60;;
72198;SDS011;60103;51.014;16.992;2023-07-02T03:56:56;5.10;;;1.40;;
72198;SDS011;60103;51.014;16.992;2023-07-02T03:59:25;4.70;;;1.20;;
72198;SDS011;60103;51.014;16.992;2023-07-02T04:01:54;5.70;;;1.40;;
72198;SDS011;60103;51.014;16.992;2023-07-02T04:04:23;5.50;;;1.30;;
72198;SDS011;60103;51.014;16.992;2023-07-02T04:06:52;4.50;;;1.30;;
72198;SDS011;60103;51.014;16.992;2023-07-02T04:09:21;5.50;;;1.60;;
72198;SDS011;60103;51.014;16.992;2023-07-02T04:11:50;5.00;;;1.50;;
72198;SDS011;60103;51.014;16.992;2023-07-02T04:14:19;4.40;;;1.20;;
72198;SDS011;60103;51.014;16.992;2023-07-02T04:16:48;4.60;;;1.40;;
72198;SDS011;60103;51.014;16.992;2023-07-02T04:19:17;4.60;;;1.40;;
72198;SDS011;60103;51.014;16.992;2023-07-02T04:21:46;4.90;;;1.20;;
72198;SDS011;60103;51.014;16.992;2023-07-02T04:24:16;5.70;;;1.40;;
72198;SDS011;60103;51.014;16.992;2023-07-02T04:26:46;3.80;;;1.30;;
72198;SDS011;60103;51.014;16.992;2023-07-02T04:29:35;5.00;;;1.30;;
72198;SDS011;60103;51.014;16.992;2023-07-02T04:32:04;4.80;;;1.40;;
72198;SDS011;60103;51.014;16.992;2023-07-02T04:34:33;5.40;;;1.50;;
72198;SDS011;60103;51.014;16.992;2023-07-02T04:37:04;5.00;;;1.50;;
72198;SDS011;60103;51.014;16.992;2023-07-02T04:39:34;6.30;;;1.40;;
72198;SDS011;60103;51.014;16.992;2023-07-02T04:42:03;4.70;;;1.30;;
72198;SDS011;60103;51.014;16.992;2023-07-02T04:44:32;6.00;;;1.80;;
72198;SDS011;60103;51.014;16.992;2023-07-02T04:47:01;5.50;;;1.40;;
72198;SDS011;60103;51.014;16.992;2023-07-02T04:49:31;5.70;;;1.30;;
72198;SDS011;60103;51.014;16.992;2023-07-02T04:52:00;5.10;;;1.50;;
72198;SDS011;60103;51.014;16.992;2023-07-02T04:54:29;5.00;;;1.40;;
72198;SDS011;60103;51.014;16.992;2023-07-02T04:56:59;4.40;;;1.30;;
72198;SDS011;60103;51.014;16.992;2023-07-02T04:59:28;5.70;;;1.40;;
72198;SDS011;60103;51.014;16.992;2023-07-02T05:01:57;5.30;;;1.40;;
72198;SDS011;60103;51.014;16.992;2023-07-02T05:04:26;5.50;;;1.40;;
72198;SDS011;60103;51.014;16.992;2023-07-02T05:06:55;4.40;;;1.30;;
72198;SDS011;60103;51.014;16.992;2023-07-02T05:09:26;6.10;;;1.60;;
72198;SDS011;60103;51.014;16.992;2023-07-02T05:11:55;5.20;;;1.10;;
72198;SDS011;60103;51.014;16.992;2023-07-02T05:14:24;4.50;;;1.10;;
72198;SDS011;60103;51.014;16.992;2023-07-02T05:16:53;4.30;;;1.30;;
72198;SDS011;60103;51.014;16.992;2023-07-02T05:19:22;7.20;;;1.70;;
72198;SDS011;60103;51.014;16.992;2023-07-02T05:21:50;6.30;;;1.90;;
72198;SDS011;60103;51.014;16.992;2023-07-02T05:24:19;5.30;;;1.60;;
72198;SDS011;60103;51.014;16.992;2023-07-02T05:26:48;4.50;;;1.30;;
72198;SDS011;60103;51.014;16.992;2023-07-02T05:29:19;5.70;;;1.70;;
72198;SDS011;60103;51.014;16.992;2023-07-02T05:31:48;5.70;;;1.30;;
72198;SDS011;60103;51.014;16.992;2023-07-02T05:34:16;6.80;;;1.40;;
72198;SDS011;60103;51.014;16.992;2023-07-02T05:36:45;6.90;;;1.70;;
72198;SDS011;60103;51.014;16.992;2023-07-02T05:39:15;4.30;;;1.60;;
72198;SDS011;60103;51.014;16.992;2023-07-02T05:41:44;5.40;;;1.70;;
72198;SDS011;60103;51.014;16.992;2023-07-02T05:44:13;5.50;;;1.60;;
72198;SDS011;60103;51.014;16.992;2023-07-02T05:46:42;5.00;;;1.50;;
72198;SDS011;60103;51.014;16.992;2023-07-02T05:49:11;4.20;;;1.50;;
72198;SDS011;60103;51.014;16.992;2023-07-02T05:51:40;5.70;;;1.50;;
72198;SDS011;60103;51.014;16.992;2023-07-02T05:54:09;6.60;;;1.80;;
72198;SDS011;60103;51.014;16.992;2023-07-02T05:56:39;5.70;;;1.30;;
72198;SDS011;60103;51.014;16.992;2023-07-02T05:59:08;5.40;;;1.50;;
72198;SDS011;60103;51.014;16.992;2023-07-02T06:01:36;7.60;;;1.70;;
72198;SDS011;60103;51.014;16.992;2023-07-02T06:04:05;5.70;;;1.60;;
72198;SDS011;60103;51.014;16.992;2023-07-02T06:06:34;5.70;;;1.70;;
72198;SDS011;60103;51.014;16.992;2023-07-02T06:09:03;4.80;;;1.50;;
72198;SDS011;60103;51.014;16.992;2023-07-02T06:11:32;6.10;;;1.80;;
72198;SDS011;60103;51.014;16.992;2023-07-02T06:14:01;5.00;;;1.50;;
72198;SDS011;60103;51.014;16.992;2023-07-02T06:16:30;5.00;;;1.50;;
72198;SDS011;60103;51.014;16.992;2023-07-02T06:19:00;6.10;;;1.50;;
72198;SDS011;60103;51.014;16.992;2023-07-02T06:21:29;5.40;;;1.70;;
72198;SDS011;60103;51.014;16.992;2023-07-02T06:24:00;6.50;;;1.70;;
72198;SDS011;60103;51.014;16.992;2023-07-02T06:26:30;6.00;;;1.70;;
72198;SDS011;60103;51.014;16.992;2023-07-02T06:29:00;4.70;;;1.20;;
72198;SDS011;60103;51.014;16.992;2023-07-02T06:31:29;6.30;;;1.90;;
72198;SDS011;60103;51.014;16.992;2023-07-02T06:33:58;7.20;;;2.00;;
72198;SDS011;60103;51.014;16.992;2023-07-02T06:36:27;5.20;;;1.80;;
72198;SDS011;60103;51.014;16.992;2023-07-02T06:38:56;6.10;;;1.70;;
72198;SDS011;60103;51.014;16.992;2023-07-02T06:41:26;7.00;;;1.90;;
72198;SDS011;60103;51.014;16.992;2023-07-02T06:43:54;7.40;;;1.50;;
72198;SDS011;60103;51.014;16.992;2023-07-02T06:46:23;8.10;;;2.10;;
72198;SDS011;60103;51.014;16.992;2023-07-02T06:48:52;9.20;;;2.20;;
72198;SDS011;60103;51.014;16.992;2023-07-02T06:51:23;7.80;;;2.00;;
72198;SDS011;60103;51.014;16.992;2023-07-02T06:53:54;5.90;;;1.70;;
72198;SDS011;60103;51.014;16.992;2023-07-02T06:56:23;7.00;;;2.10;;
72198;SDS011;60103;51.014;16.992;2023-07-02T06:58:52;6.10;;;1.90;;
72198;SDS011;60103;51.014;16.992;2023-07-02T07:01:21;5.90;;;2.00;;
72198;SDS011;60103;51.014;16.992;2023-07-02T07:03:50;5.70;;;1.80;;
72198;SDS011;60103;51.014;16.992;2023-07-02T07:06:19;5.80;;;1.90;;
72198;SDS011;60103;51.014;16.992;2023-07-02T07:08:49;6.00;;;1.60;;
72198;SDS011;60103;51.014;16.992;2023-07-02T07:11:19;5.40;;;1.70;;
72198;SDS011;60103;51.014;16.992;2023-07-02T07:13:48;7.30;;;2.00;;
72198;SDS011;60103;51.014;16.992;2023-07-02T07:16:19;5.50;;;2.00;;
72198;SDS011;60103;51.014;16.992;2023-07-02T07:18:57;6.40;;;2.30;;
72198;SDS011;60103;51.014;16.992;2023-07-02T07:21:26;5.00;;;1.90;;
72198;SDS011;60103;51.014;16.992;2023-07-02T07:24:00;6.20;;;2.10;;
72198;SDS011;60103;51.014;16.992;2023-07-02T07:26:29;5.40;;;2.00;;
72198;SDS011;60103;51.014;16.992;2023-07-02T07:28:58;7.10;;;2.50;;
72198;SDS011;60103;51.014;16.992;2023-07-02T07:31:27;5.70;;;2.20;;
72198;SDS011;60103;51.014;16.992;2023-07-02T07:33:56;6.30;;;2.00;;
72198;SDS011;60103;51.014;16.992;2023-07-02T07:36:26;8.10;;;2.00;;
72198;SDS011;60103;51.014;16.992;2023-07-02T07:38:55;5.00;;;1.70;;
72198;SDS011;60103;51.014;16.992;2023-07-02T07:41:28;6.50;;;1.90;;
72198;SDS011;60103;51.014;16.992;2023-07-02T07:43:58;5.60;;;2.00;;
72198;SDS011;60103;51.014;16.992;2023-07-02T07:46:27;5.50;;;1.80;;
72198;SDS011;60103;51.014;16.992;2023-07-02T07:48:56;5.10;;;1.50;;
72198;SDS011;60103;51.014;16.992;2023-07-02T07:51:25;6.00;;;2.20;;
72198;SDS011;60103;51.014;16.992;2023-07-02T07:54:01;5.90;;;2.20;;
72198;SDS011;60103;51.014;16.992;2023-07-02T07:56:31;5.70;;;1.70;;
72198;SDS011;60103;51.014;16.992;2023-07-02T07:59:00;6.20;;;1.60;;
72198;SDS011;60103;51.014;16.992;2023-07-02T08:01:29;6.60;;;1.90;;
72198;SDS011;60103;51.014;16.992;2023-07-02T08:03:58;6.60;;;2.10;;
72198;SDS011;60103;51.014;16.992;2023-07-02T08:06:27;6.80;;;2.20;;
72198;SDS011;60103;51.014;16.992;2023-07-02T08:08:56;5.00;;;1.80;;
72198;SDS011;60103;51.014;16.992;2023-07-02T08:11:25;5.70;;;2.00;;
72198;SDS011;60103;51.014;16.992;2023-07-02T08:13:57;5.80;;;2.00;;
72198;SDS011;60103;51.014;16.992;2023-07-02T08:16:26;5.60;;;1.80;;
72198;SDS011;60103;51.014;16.992;2023-07-02T08:18:55;6.90;;;2.00;;
72198;SDS011;60103;51.014;16.992;2023-07-02T08:21:24;6.20;;;2.40;;
72198;SDS011;60103;51.014;16.992;2023-07-02T08:23:53;5.90;;;1.70;;
72198;SDS011;60103;51.014;16.992;2023-07-02T08:26:22;7.90;;;2.10;;
72198;SDS011;60103;51.014;16.992;2023-07-02T08:28:51;5.00;;;1.70;;
72198;SDS011;60103;51.014;16.992;2023-07-02T08:31:21;5.50;;;1.80;;
72198;SDS011;60103;51.014;16.992;2023-07-02T08:33:50;6.10;;;2.00;;
72198;SDS011;60103;51.014;16.992;2023-07-02T08:36:20;5.80;;;1.60;;
72198;SDS011;60103;51.014;16.992;2023-07-02T08:38:49;5.90;;;1.70;;
72198;SDS011;60103;51.014;16.992;2023-07-02T08:41:20;4.70;;;1.60;;
72198;SDS011;60103;51.014;16.992;2023-07-02T08:43:50;5.30;;;1.60;;
72198;SDS011;60103;51.014;16.992;2023-07-02T08:46:23;5.40;;;1.80;;
72198;SDS011;60103;51.014;16.992;2023-07-02T08:48:52;6.40;;;1.70;;
72198;SDS011;60103;51.014;16.992;2023-07-02T08:51:21;5.40;;;1.90;;
72198;SDS011;60103;51.014;16.992;2023-07-02T08:53:50;6.30;;;2.00;;
72198;SDS011;60103;51.014;16.992;2023-07-02T08:56:20;4.60;;;1.50;;
72198;SDS011;60103;51.014;16.992;2023-07-02T08:58:49;6.20;;;2.10;;
72198;SDS011;60103;51.014;16.992;2023-07-02T09:01:18;6.10;;;1.70;;
72198;SDS011;60103;51.014;16.992;2023-07-02T09:03:48;4.10;;;1.40;;
72198;SDS011;60103;51.014;16.992;2023-07-02T09:06:18;6.70;;;2.00;;
72198;SDS011;60103;51.014;16.992;2023-07-02T09:08:48;5.70;;;2.20;;
72198;SDS011;60103;51.014;16.992;2023-07-02T09:11:17;5.50;;;2.10;;
72198;SDS011;60103;51.014;16.992;2023-07-02T09:13:49;6.00;;;2.20;;
72198;SDS011;60103;51.014;16.992;2023-07-02T09:16:24;6.30;;;2.20;;
72198;SDS011;60103;51.014;16.992;2023-07-02T09:18:58;7.10;;;3.00;;
72198;SDS011;60103;51.014;16.992;2023-07-02T09:24:16;6.10;;;2.00;;
72198;SDS011;60103;51.014;16.992;2023-07-02T09:26:49;6.00;;;1.80;;
72198;SDS011;60103;51.014;16.992;2023-07-02T09:29:30;4.70;;;1.70;;
72198;SDS011;60103;51.014;16.992;2023-07-02T09:32:00;5.10;;;2.00;;
72198;SDS011;60103;51.014;16.992;2023-07-02T09:34:38;5.70;;;1.90;;
72198;SDS011;60103;51.014;16.992;2023-07-02T09:37:11;5.90;;;2.00;;
72198;SDS011;60103;51.014;16.992;2023-07-02T09:39:41;6.80;;;1.80;;
72198;SDS011;60103;51.014;16.992;2023-07-02T09:42:11;6.80;;;1.70;;
72198;SDS011;60103;51.014;16.992;2023-07-02T09:44:41;5.70;;;2.00;;
72198;SDS011;60103;51.014;16.992;2023-07-02T09:47:12;5.70;;;1.90;;
72198;SDS011;60103;51.014;16.992;2023-07-02T09:50:05;6.10;;;2.20;;
72198;SDS011;60103;51.014;16.992;2023-07-02T09:52:36;6.50;;;2.10;;
72198;SDS011;60103;51.014;16.992;2023-07-02T09:55:06;5.40;;;1.90;;
72198;SDS011;60103;51.014;16.992;2023-07-02T09:57:36;5.70;;;1.90;;
72198;SDS011;60103;51.014;16.992;2023-07-02T10:00:07;5.40;;;1.80;;
72198;SDS011;60103;51.014;16.992;2023-07-02T10:02:39;6.10;;;2.10;;
72198;SDS011;60103;51.014;16.992;2023-07-02T10:05:10;5.50;;;1.90;;
72198;SDS011;60103;51.014;16.992;2023-07-02T10:07:40;6.20;;;2.10;;
72198;SDS011;60103;51.014;16.992;2023-07-02T10:10:12;5.50;;;2.10;;
72198;SDS011;60103;51.014;16.992;2023-07-02T10:12:45;6.60;;;1.90;;
72198;SDS011;60103;51.014;16.992;2023-07-02T10:15:23;5.70;;;2.00;;
72198;SDS011;60103;51.014;16.992;2023-07-02T10:17:56;5.70;;;2.20;;
72198;SDS011;60103;51.014;16.992;2023-07-02T10:20:35;6.70;;;2.50;;
72198;SDS011;60103;51.014;16.992;2023-07-02T10:23:09;5.80;;;2.10;;
72198;SDS011;60103;51.014;16.992;2023-07-02T10:25:38;5.20;;;1.80;;
72198;SDS011;60103;51.014;16.992;2023-07-02T10:28:14;7.00;;;2.00;;
72198;SDS011;60103;51.014;16.992;2023-07-02T10:30:48;5.80;;;1.80;;
72198;SDS011;60103;51.014;16.992;2023-07-02T10:33:17;6.70;;;1.90;;
72198;SDS011;60103;51.014;16.992;2023-07-02T10:35:48;6.30;;;1.80;;
72198;SDS011;60103;51.014;16.992;2023-07-02T10:38:22;5.80;;;1.90;;
72198;SDS011;60103;51.014;16.992;2023-07-02T10:40:55;5.70;;;1.80;;
72198;SDS011;60103;51.014;16.992;2023-07-02T10:43:32;6.60;;;1.60;;
72198;SDS011;60103;51.014;16.992;2023-07-02T10:46:01;6.20;;;2.00;;
72198;SDS011;60103;51.014;16.992;2023-07-02T10:48:33;5.60;;;1.90;;
72198;SDS011;60103;51.014;16.992;2023-07-02T10:51:10;6.20;;;1.90;;
72198;SDS011;60103;51.014;16.992;2023-07-02T10:53:40;6.90;;;2.00;;
72198;SDS011;60103;51.014;16.992;2023-07-02T10:56:15;5.20;;;1.70;;
72198;SDS011;60103;51.014;16.992;2023-07-02T10:58:44;6.50;;;1.70;;
72198;SDS011;60103;51.014;16.992;2023-07-02T11:01:15;6.10;;;1.90;;
72198;SDS011;60103;51.014;16.992;2023-07-02T11:06:28;5.80;;;1.80;;
72198;SDS011;60103;51.014;16.992;2023-07-02T11:08:58;7.00;;;2.10;;
72198;SDS011;60103;51.014;16.992;2023-07-02T11:11:28;6.00;;;2.00;;
72198;SDS011;60103;51.014;16.992;2023-07-02T11:13:57;5.00;;;1.60;;
72198;SDS011;60103;51.014;16.992;2023-07-02T11:16:26;6.90;;;1.90;;
72198;SDS011;60103;51.014;16.992;2023-07-02T11:19:19;6.00;;;1.80;;
72198;SDS011;60103;51.014;16.992;2023-07-02T11:21:56;5.40;;;1.70;;
72198;SDS011;60103;51.014;16.992;2023-07-02T11:24:33;6.50;;;2.30;;
72198;SDS011;60103;51.014;16.992;2023-07-02T11:27:04;6.00;;;1.90;;
72198;SDS011;60103;51.014;16.992;2023-07-02T11:29:33;5.70;;;1.60;;
72198;SDS011;60103;51.014;16.992;2023-07-02T11:32:10;5.60;;;1.80;;
72198;SDS011;60103;51.014;16.992;2023-07-02T11:34:40;5.60;;;2.10;;
72198;SDS011;60103;51.014;16.992;2023-07-02T11:37:09;6.90;;;1.80;;
72198;SDS011;60103;51.014;16.992;2023-07-02T11:39:37;5.30;;;1.70;;
72198;SDS011;60103;51.014;16.992;2023-07-02T11:42:06;6.40;;;1.90;;
72198;SDS011;60103;51.014;16.992;2023-07-02T11:44:35;5.00;;;1.60;;
72198;SDS011;60103;51.014;16.992;2023-07-02T11:47:04;5.80;;;2.00;;
72198;SDS011;60103;51.014;16.992;2023-07-02T11:49:33;5.30;;;1.90;;
72198;SDS011;60103;51.014;16.992;2023-07-02T11:52:02;5.40;;;1.80;;
72198;SDS011;60103;51.014;16.992;2023-07-02T11:54:31;6.80;;;1.90;;
72198;SDS011;60103;51.014;16.992;2023-07-02T11:57:00;6.30;;;1.90;;
72198;SDS011;60103;51.014;16.992;2023-07-02T11:59:29;6.10;;;1.70;;
72198;SDS011;60103;51.014;16.992;2023-07-02T12:01:58;4.80;;;1.50;;
72198;SDS011;60103;51.014;16.992;2023-07-02T12:04:28;6.20;;;1.60;;
72198;SDS011;60103;51.014;16.992;2023-07-02T12:06:57;5.60;;;1.80;;
72198;SDS011;60103;51.014;16.992;2023-07-02T12:09:26;6.00;;;1.80;;
72198;SDS011;60103;51.014;16.992;2023-07-02T12:11:56;6.30;;;1.60;;
72198;SDS011;60103;51.014;16.992;2023-07-02T12:14:24;7.10;;;2.10;;
72198;SDS011;60103;51.014;16.992;2023-07-02T12:16:54;4.80;;;1.70;;
72198;SDS011;60103;51.014;16.992;2023-07-02T12:19:23;6.00;;;1.60;;
72198;SDS011;60103;51.014;16.992;2023-07-02T12:21:52;6.10;;;1.80;;
72198;SDS011;60103;51.014;16.992;2023-07-02T12:24:21;8.40;;;1.90;;
72198;SDS011;60103;51.014;16.992;2023-07-02T12:26:50;5.00;;;1.70;;
72198;SDS011;60103;51.014;16.992;2023-07-02T12:29:19;6.00;;;2.10;;
72198;SDS011;60103;51.014;16.992;2023-07-02T12:31:48;5.60;;;1.70;;
72198;SDS011;60103;51.014;16.992;2023-07-02T12:34:17;7.60;;;1.50;;
72198;SDS011;60103;51.014;16.992;2023-07-02T12:36:46;4.70;;;1.50;;
72198;SDS011;60103;51.014;16.992;2023-07-02T12:39:15;6.80;;;1.60;;
72198;SDS011;60103;51.014;16.992;2023-07-02T12:41:47;7.30;;;1.90;;
72198;SDS011;60103;51.014;16.992;2023-07-02T12:44:16;6.30;;;1.90;;
72198;SDS011;60103;51.014;16.992;2023-07-02T12:46:45;6.40;;;1.60;;
72198;SDS011;60103;51.014;16.992;2023-07-02T12:49:14;5.80;;;1.60;;
72198;SDS011;60103;51.014;16.992;2023-07-02T12:51:43;5.10;;;1.50;;
72198;SDS011;60103;51.014;16.992;2023-07-02T12:54:14;5.60;;;1.80;;
72198;SDS011;60103;51.014;16.992;2023-07-02T12:56:43;5.70;;;1.70;;
72198;SDS011;60103;51.014;16.992;2023-07-02T12:59:13;5.90;;;1.70;;
72198;SDS011;60103;51.014;16.992;2023-07-02T13:01:44;5.00;;;1.50;;
72198;SDS011;60103;51.014;16.992;2023-07-02T13:04:13;5.20;;;1.60;;
72198;SDS011;60103;51.014;16.992;2023-07-02T13:06:44;5.50;;;1.90;;
72198;SDS011;60103;51.014;16.992;2023-07-02T13:09:14;6.50;;;1.70;;
72198;SDS011;60103;51.014;16.992;2023-07-02T13:11:44;7.50;;;1.90;;
72198;SDS011;60103;51.014;16.992;2023-07-02T13:14:13;5.40;;;1.80;;
72198;SDS011;60103;51.014;16.992;2023-07-02T13:16:43;5.50;;;1.80;;
72198;SDS011;60103;51.014;16.992;2023-07-02T13:19:13;5.10;;;1.90;;
72198;SDS011;60103;51.014;16.992;2023-07-02T13:21:44;5.70;;;1.70;;
72198;SDS011;60103;51.014;16.992;2023-07-02T13:24:13;7.80;;;1.60;;
72198;SDS011;60103;51.014;16.992;2023-07-02T13:26:43;5.40;;;1.70;;
72198;SDS011;60103;51.014;16.992;2023-07-02T13:29:13;5.80;;;1.60;;
72198;SDS011;60103;51.014;16.992;2023-07-02T13:31:43;6.40;;;1.80;;
72198;SDS011;60103;51.014;16.992;2023-07-02T13:34:13;4.30;;;1.50;;
72198;SDS011;60103;51.014;16.992;2023-07-02T13:36:55;5.80;;;2.00;;
72198;SDS011;60103;51.014;16.992;2023-07-02T13:39:24;5.70;;;1.60;;
72198;SDS011;60103;51.014;16.992;2023-07-02T13:41:53;5.90;;;1.40;;
72198;SDS011;60103;51.014;16.992;2023-07-02T13:44:23;5.10;;;1.60;;
72198;SDS011;60103;51.014;16.992;2023-07-02T13:46:54;5.30;;;1.50;;
72198;SDS011;60103;51.014;16.992;2023-07-02T13:49:23;6.10;;;1.50;;
72198;SDS011;60103;51.014;16.992;2023-07-02T13:51:53;4.90;;;1.60;;
72198;SDS011;60103;51.014;16.992;2023-07-02T13:54:22;5.00;;;1.70;;
72198;SDS011;60103;51.014;16.992;2023-07-02T13:56:52;5.20;;;1.60;;
72198;SDS011;60103;51.014;16.992;2023-07-02T13:59:21;5.20;;;1.40;;
72198;SDS011;60103;51.014;16.992;2023-07-02T14:01:51;6.10;;;1.40;;
72198;SDS011;60103;51.014;16.992;2023-07-02T14:04:20;6.10;;;1.50;;
72198;SDS011;60103;51.014;16.992;2023-07-02T14:06:49;5.30;;;2.00;;
72198;SDS011;60103;51.014;16.992;2023-07-02T14:09:20;5.70;;;2.00;;
72198;SDS011;60103;51.014;16.992;2023-07-02T14:11:49;6.90;;;2.30;;
72198;SDS011;60103;51.014;16.992;2023-07-02T14:14:18;5.40;;;1.90;;
72198;SDS011;60103;51.014;16.992;2023-07-02T14:16:48;6.80;;;2.10;;
72198;SDS011;60103;51.014;16.992;2023-07-02T14:19:17;8.00;;;2.00;;
72198;SDS011;60103;51.014;16.992;2023-07-02T14:21:47;6.20;;;2.10;;
72198;SDS011;60103;51.014;16.992;2023-07-02T14:24:17;7.10;;;1.90;;
72198;SDS011;60103;51.014;16.992;2023-07-02T14:26:46;4.70;;;1.60;;
72198;SDS011;60103;51.014;16.992;2023-07-02T14:29:16;6.60;;;1.80;;
72198;SDS011;60103;51.014;16.992;2023-07-02T14:31:45;6.30;;;1.60;;
72198;SDS011;60103;51.014;16.992;2023-07-02T14:34:15;6.20;;;2.20;;
72198;SDS011;60103;51.014;16.992;2023-07-02T14:36:45;7.50;;;1.90;;
72198;SDS011;60103;51.014;16.992;2023-07-02T14:39:14;6.20;;;1.80;;
72198;SDS011;60103;51.014;16.992;2023-07-02T14:41:43;6.50;;;2.20;;
72198;SDS011;60103;51.014;16.992;2023-07-02T14:44:13;6.30;;;2.00;;
72198;SDS011;60103;51.014;16.992;2023-07-02T14:46:42;8.20;;;2.00;;
72198;SDS011;60103;51.014;16.992;2023-07-02T14:49:13;6.80;;;1.70;;
72198;SDS011;60103;51.014;16.992;2023-07-02T14:51:43;5.90;;;1.50;;
72198;SDS011;60103;51.014;16.992;2023-07-02T14:54:12;5.80;;;1.90;;
72198;SDS011;60103;51.014;16.992;2023-07-02T14:56:41;5.00;;;1.60;;
72198;SDS011;60103;51.014;16.992;2023-07-02T14:59:10;5.60;;;1.80;;
72198;SDS011;60103;51.014;16.992;2023-07-02T15:01:39;6.30;;;2.10;;